Cedar Shores, Indiana
Current Conditions -  °F | °C
As of 4:15 PM on Monday 24 Nov 2014 (Local Time) from KGWB Reporting Station
Light Rain Light Rain  
Wind Chill: 23°   Ceiling: 2500
Heat Index: 36°   Visibility: 7mi
Dew Point: 30°   Wind: 25mph
Humidity: 81%   Direction: 230°SW
Pressure: 29.55"   Gusts: 36mph
Location:  41.2326°N, 85.0459°W
Report Text: KGWB 242115Z AUTO 23022G31KT 7SM -RA SCT019 OVC025 02/M01 A2955 RMK AO2
Loading
Personal Weather Stations






























Interactive Weather Map New forecast layout! Learn more

10-Day Weather Forecast

Advertisements
Track Severe Weather on mobile